Flight Track Log - Related Links

Times and Time Zones

All times are in EDT time to prevent confusion due to time zone crossing. See the XOJ750 flight status page for this flight to view local times or setup timezone preferences in your user account.

Time Position Orientation Groundspeed Altitude Reporting Facility
EDT Latitude Longitude Course Direction KTS MPH feet Rate Location/Type
Sun 11:37:26 AM 39.3011 -106.9381 282° West 260 299 12,000  Level Denver Center
Sun 11:38:28 AM 39.3156 -107.0275 282° West 248 285 15,200 2,565 Climbing Denver Center
Sun 11:39:30 AM 39.3797 -107.0692 333° Northwest 282 325 17,300 1,645 Climbing Denver Center
Sun 11:40:32 AM 39.4686 -107.0411 14° North 316 364 18,600 1,597 Climbing Denver Center
Sun 11:41:34 AM 39.5753 -107.0083 13° North 346 398 20,600 1,694 Climbing Denver Center
Sun 11:42:36 AM 39.6706 -106.9794 13° North 369 425 22,100 1,403 Climbing Denver Center
Sun 11:43:38 AM 39.7725 -106.9492 13° North 386 444 23,500 1,403 Climbing Denver Center
Sun 11:44:40 AM 39.8814 -106.9172 13° North 395 455 25,000 1,584 Climbing Denver Center
Sun 11:45:43 AM 39.9972 -106.8219 32° Northeast 423 487 26,800 1,440 Climbing Denver Center
Sun 11:46:45 AM 40.0147 -106.6775 81° East 427 491 28,000 1,065 Climbing Denver Center
Sun 11:47:47 AM 40.0017 -106.5078 96° East 449 517 29,000 1,016 Climbing Denver Center
Sun 11:48:49 AM 39.9858 -106.3256 96° East 459 528 30,100 1,016 Climbing Denver Center
Sun 11:49:51 AM 39.9700 -106.1536 97° East 475 547 31,100 968 Climbing Denver Center
Sun 11:50:53 AM 39.9531 -105.9794 97° East 484 557 32,100 919 Climbing Denver Center
Sun 11:51:55 AM 39.9356 -105.8000 97° East 496 571 33,000 774 Climbing Denver Center
Sun 11:52:57 AM 39.9189 -105.6156 97° East 508 585 33,700 823 Climbing Denver Center
Sun 11:53:59 AM 39.9233 -105.4244 88° East 525 604 34,700 1,065 Climbing Denver Center
Sun 11:55:01 AM 39.9378 -105.1967 85° East 525 604 35,900 1,065 Climbing Denver Center
Sun 11:56:03 AM 39.9483 -105.0031 86° East 528 608 36,900 919 Climbing Denver Center
Sun 11:57:05 AM 39.9606 -104.8075 85° East 538 619 37,800 968 Climbing Denver Center
Sun 11:58:07 AM 39.9711 -104.6133 86° East 531 611 38,900 968 Climbing Denver Center
Sun 11:59:09 AM 39.9814 -104.4125 86° East 536 617 39,800 919 Climbing Denver Center
Sun 12:00:11 PM 39.9908 -104.2200 86° East 527 606 40,800 581 Climbing Denver Center
Sun 12:01:13 PM 40.0006 -104.0269 86° East 532 612 41,000 97 Climbing Denver Center
Sun 12:02:15 PM 40.0125 -103.7942 86° East 534 615 41,000  Level Denver Center
Sun 12:03:17 PM 40.0222 -103.6019 86° East 531 611 41,000  Level Denver Center
Sun 12:04:20 PM 40.0311 -103.4056 87° East 541 623 41,000  Level Denver Center
Sun 12:05:22 PM 40.0403 -103.2106 86° East 540 621 41,000  Level Denver Center
Sun 12:06:24 PM 40.0472 -103.0153 87° East 541 623 41,000  Level Denver Center
Sun 12:07:26 PM 40.0556 -102.8211 87° East 537 618 41,000  Level Denver Center
Sun 12:08:28 PM 40.0642 -102.6053 87° East 540 621 41,000  Level Denver Center
Sun 12:09:30 PM 40.0714 -102.3892 87° East 536 617 41,000  Level Denver Center
Sun 12:10:32 PM 40.0797 -102.2028 87° East 538 619 41,000  Level Denver Center
Sun 12:11:34 PM 40.0867 -101.9847 88° East 541 623 41,000  Level Denver Center
Sun 12:12:36 PM 40.0917 -101.7983 88° East 539 620 41,000 48 Level Denver Center
Sun 12:13:38 PM 40.0986 -101.5808 88° East 540 621 41,100 290 Climbing Denver Center
Sun 12:14:40 PM 40.1039 -101.3967 88° East 535 616 41,600 435 Climbing Denver Center
Sun 12:15:42 PM 40.1092 -101.2119 88° East 534 615 42,000 435 Climbing Denver Center
Sun 12:16:44 PM 40.1147 -101.0011 88° East 526 605 42,500 435 Climbing Denver Center
Sun 12:17:46 PM 40.1186 -100.8192 88° East 526 605 42,900 484 Climbing Denver Center
Sun 12:18:48 PM 40.1233 -100.6069 88° East 527 606 43,500 532 Climbing Denver Center
Sun 12:19:50 PM 40.1264 -100.4283 89° East 518 596 44,000 387 Climbing Denver Center
Sun 12:20:52 PM 40.1314 -100.2214 88° East 514 592 44,300 290 Climbing Denver Center
Sun 12:21:54 PM 40.1333 -100.0436 89° East 514 592 44,600 249 Climbing Denver Center
Sun 12:23:41 PM 40.1394 -99.6964 89° East 511 588 45,000 142 Climbing Kansas City Center
Sun 12:24:43 PM 40.1406 -99.5131 89° East 509 586 45,000  Level Kansas City Center
Sun 12:25:45 PM 40.1425 -99.3317 89° East 506 582 45,000  Level Kansas City Center
Sun 12:26:47 PM 40.1444 -99.1514 89° East 503 579 45,000  Level Kansas City Center
Sun 12:27:49 PM 40.1458 -98.9719 89° East 500 575 45,000  Level Kansas City Center
Sun 12:28:52 PM 40.1475 -98.7550 89° East 499 574 45,000  Level Kansas City Center
Sun 12:29:54 PM 40.1492 -98.5761 89° East 495 570 45,000  Level Kansas City Center
Sun 12:30:56 PM 40.1494 -98.3983 90° East 492 566 45,000  Level Kansas City Center
Sun 12:31:58 PM 40.1503 -98.2203 90° East 493 567 45,000  Level Kansas City Center
Sun 12:33:00 PM 40.1503 -98.0428 90° East 491 565 45,000  Level Kansas City Center
Sun 12:34:02 PM 40.1506 -97.8300 90° East 490 564 45,000  Level Kansas City Center
Sun 12:35:04 PM 40.1497 -97.6528 90° East 489 563 45,000  Level Kansas City Center
Sun 12:36:06 PM 40.1475 -97.4819 91° East 489 563 45,000  Level Kansas City Center
Sun 12:37:08 PM 40.1456 -97.2817 91° East 494 568 45,000  Level Kansas City Center
Sun 12:38:10 PM 40.1456 -97.1111 90° East 491 565 45,000  Level Kansas City Center
Sun 12:39:12 PM 40.1436 -96.9375 91° East 495 570 45,000  Level Kansas City Center
Sun 12:40:14 PM 40.1406 -96.7369 91° East 496 571 45,000  Level Kansas City Center
Sun 12:41:16 PM 40.1392 -96.5636 91° East 497 572 45,000  Level Kansas City Center
Sun 12:42:18 PM 40.1367 -96.3861 91° East 496 571 45,000  Level Kansas City Center
Sun 12:43:20 PM 40.1328 -96.1703 91° East 498 573 45,000  Level Kansas City Center
Sun 12:44:22 PM 40.1292 -95.9828 91° East 504 580 45,000  Level Kansas City Center
Sun 12:45:02 PM 40.1275 -95.9192 92° East 503 579 45,000  Level Minneapolis Center
Sun 12:46:05 PM 40.1222 -95.6603 91° East 508 585 45,000  Level Minneapolis Center
Sun 12:47:07 PM 40.1194 -95.4769 91° East 509 586 45,000  Level Minneapolis Center
Sun 12:48:09 PM 40.1144 -95.2922 92° East 510 587 45,000  Level Minneapolis Center
Sun 12:49:11 PM 40.1100 -95.1075 92° East 511 588 45,000  Level Minneapolis Center
Sun 12:50:13 PM 40.1058 -94.9219 92° East 513 590 45,000  Level Minneapolis Center
Sun 12:51:16 PM 40.1000 -94.7361 92° East 514 592 45,000  Level Minneapolis Center
Sun 12:52:18 PM 40.0944 -94.5206 92° East 517 595 45,000  Level Minneapolis Center
Sun 12:53:20 PM 40.0864 -94.3328 93° East 521 600 45,000  Level Minneapolis Center
Sun 12:54:22 PM 40.0814 -94.1467 92° East 520 598 45,000  Level Minneapolis Center
Sun 12:55:24 PM 40.0747 -93.9586 93° East 522 601 45,000  Level Minneapolis Center
Sun 12:56:46 PM 40.0614 -93.6950 94° East 524 603 45,000  Level Kansas City Center
Sun 12:57:48 PM 40.0539 -93.4719 92° East 520 598 45,000  Level Kansas City Center
Sun 12:58:50 PM 40.0453 -93.2842 93° East 524 603 45,000  Level Kansas City Center
Sun 12:59:52 PM 40.0378 -93.0983 93° East 523 602 45,000  Level Kansas City Center
Sun 01:00:54 PM 40.0297 -92.9131 93° East 521 600 45,000  Level Kansas City Center
Sun 01:01:56 PM 40.0183 -92.6917 94° East 521 600 45,000  Level Kansas City Center
Sun 01:02:58 PM 40.0114 -92.5058 93° East 526 605 45,000  Level Kansas City Center
Sun 01:04:00 PM 40.0025 -92.3206 94° East 524 603 45,000  Level Kansas City Center
Sun 01:05:02 PM 39.9933 -92.1344 94° East 523 602 45,000  Level Kansas City Center
Sun 01:06:04 PM 39.9811 -91.9094 94° East 526 605 45,000  Level Kansas City Center
Sun 01:07:06 PM 39.9706 -91.7200 94° East 529 609 45,000  Level Kansas City Center
Sun 01:08:08 PM 39.9603 -91.5303 94° East 530 610 45,000  Level Kansas City Center
Sun 01:09:10 PM 39.9492 -91.3411 94° East 529 609 45,000  Level Kansas City Center
Sun 01:10:13 PM 39.9378 -91.1517 94° East 530 610 45,000  Level Kansas City Center
Sun 01:11:15 PM 39.9247 -90.9467 95° East 530 610 45,000  Level Kansas City Center
Sun 01:12:17 PM 39.9136 -90.7575 94° East 528 608 45,000  Level Kansas City Center
Sun 01:13:19 PM 39.8989 -90.5328 95° East 523 602 45,000  Level Kansas City Center
Sun 01:14:21 PM 39.8861 -90.3444 95° East 524 603 45,000  Level Kansas City Center
Sun 01:15:23 PM 39.8733 -90.1575 95° East 523 602 45,000  Level Kansas City Center
Sun 01:16:25 PM 39.8600 -89.9706 95° East 522 601 45,000  Level Kansas City Center
Sun 01:17:27 PM 39.8464 -89.7861 95° East 519 597 45,000  Level Kansas City Center
Sun 01:18:29 PM 39.8389 -89.6031 93° East 514 592 45,000  Level Kansas City Center
Sun 01:19:31 PM 39.8406 -89.3839 89° East 509 586 45,000  Level Kansas City Center
Sun 01:20:33 PM 39.8414 -89.2011 90° East 508 585 45,000  Level Kansas City Center
Sun 01:21:35 PM 39.8417 -89.0172 90° East 510 587 45,000  Level Kansas City Center
Sun 01:22:37 PM 39.8414 -88.8347 90° East 507 583 45,000  Level Kansas City Center
Sun 01:23:39 PM 39.8414 -88.6528 90° East 505 581 45,000  Level Kansas City Center
Sun 01:24:41 PM 39.8422 -88.4717 90° East 503 579 45,000  Level Kansas City Center
Sun 01:25:43 PM 39.8431 -88.2539 90° East 503 579 45,000  Level Kansas City Center
Sun 01:26:51 PM 39.8403 -88.0436 91° East 503 579 45,000  Level Indianapolis Center
Sun 01:27:53 PM 39.8542 -87.8622 84° East 504 580 45,000  Level Indianapolis Center
Sun 01:28:54 PM 39.8708 -87.6800 83° East 507 583 45,000  Level Indianapolis Center
Sun 01:29:56 PM 39.8881 -87.4994 83° East 506 582 45,000  Level Indianapolis Center
Sun 01:30:58 PM 39.9036 -87.3192 84° East 503 579 45,000  Level Indianapolis Center
Sun 01:32:25 PM 39.9258 -87.0658 83° East 503 579 45,000  Level Indianapolis Center
Sun 01:33:27 PM 39.9400 -86.8828 84° East 507 583 45,000  Level Indianapolis Center
Sun 01:34:29 PM 39.9581 -86.6622 84° East 509 586 45,000  Level Indianapolis Center
Sun 01:35:31 PM 39.9733 -86.4794 84° East 505 581 45,000  Level Indianapolis Center
Sun 01:36:32 PM 39.9889 -86.2939 84° East 507 583 45,000  Level Indianapolis Center
Sun 01:37:34 PM 40.0017 -86.1086 85° East 507 583 45,000  Level Indianapolis Center
Sun 01:38:36 PM 40.0150 -85.9247 85° East 507 583 45,000  Level Indianapolis Center
Sun 01:39:38 PM 40.0278 -85.7417 85° East 506 582 45,000  Level Indianapolis Center
Sun 01:40:40 PM 40.0411 -85.5589 84° East 506 582 45,000  Level Indianapolis Center
Sun 01:41:41 PM 40.0531 -85.3750 85° East 509 586 45,000  Level Indianapolis Center
Sun 01:42:43 PM 40.0681 -85.1542 85° East 511 588 45,000  Level Indianapolis Center
Sun 01:43:45 PM 40.0800 -84.9708 85° East 509 586 45,000 -48 Level Indianapolis Center
Sun 01:44:47 PM 40.0919 -84.7783 85° East 513 590 44,900 -49 Descending Indianapolis Center
Sun 01:45:48 PM 40.1047 -84.5919 85° East 512 589 44,900  Level Indianapolis Center
Sun 01:46:50 PM 40.1164 -84.4053 85° East 511 588 44,900  Level Indianapolis Center
Sun 01:47:52 PM 40.1278 -84.2194 85° East 508 585 44,900 48 Level Indianapolis Center
Sun 01:48:54 PM 40.1375 -84.0325 86° East 509 586 45,000  Climbing Indianapolis Center
Sun 01:49:55 PM 40.1489 -83.8444 85° East 511 588 44,900 -49 Descending Indianapolis Center
Sun 01:50:57 PM 40.1594 -83.6550 86° East 513 590 44,900  Level Indianapolis Center
Sun 01:51:59 PM 40.1694 -83.4647 86° East 514 592 44,900 49 Level Indianapolis Center
Sun 01:53:00 PM 40.1789 -83.2747 86° East 514 592 45,000  Climbing Indianapolis Center
Sun 01:54:02 PM 40.1881 -83.0858 86° East 512 589 44,900 -48 Descending Indianapolis Center
Sun 01:55:04 PM 40.1961 -82.9000 87° East 507 583 44,900  Level Indianapolis Center
Sun 01:56:06 PM 40.2044 -82.7139 87° East 507 583 44,900  Level Indianapolis Center
Sun 01:57:07 PM 40.2147 -82.4956 86° East 509 586 44,900  Level Indianapolis Center
Sun 01:58:09 PM 40.2225 -82.3089 87° East 510 587 44,900  Level Indianapolis Center
Sun 01:59:11 PM 40.2300 -82.1197 87° East 515 593 44,900  Level Indianapolis Center
Sun 02:00:12 PM 40.2378 -81.9292 87° East 519 597 44,900 49 Level Indianapolis Center
Sun 02:01:14 PM 40.2447 -81.7419 87° East 522 601 45,000 48 Climbing Indianapolis Center
Sun 02:02:16 PM 40.2517 -81.5497 87° East 526 605 45,000  Level Indianapolis Center
Sun 02:03:18 PM 40.2583 -81.3578 87° East 526 605 45,000  Level Indianapolis Center
Sun 02:04:19 PM 40.2644 -81.1639 88° East 529 609 45,000  Level Indianapolis Center
Sun 02:05:21 PM 40.2714 -80.9392 88° East 528 608 45,000  Level Indianapolis Center
Sun 02:06:23 PM 40.2772 -80.7489 88° East 523 602 45,000  Level Indianapolis Center
Sun 02:07:24 PM 40.2822 -80.5561 88° East 524 603 45,000  Level Indianapolis Center
Sun 02:08:26 PM 40.2872 -80.3650 88° East 522 601 45,000  Level Indianapolis Center
Sun 02:09:28 PM 40.2919 -80.1736 88° East 522 601 45,000  Level Indianapolis Center
Sun 02:10:48 PM 40.2967 -79.9189 89° East 524 603 45,000  Level Cleveland Center
Sun 02:11:48 PM 40.3036 -79.7311 87° East 524 603 45,000  Level Cleveland Center
Sun 02:12:48 PM 40.3064 -79.5458 89° East 517 595 45,000  Level Cleveland Center
Sun 02:13:48 PM 40.3108 -79.3578 88° East 517 595 45,000 -550 Level Cleveland Center
Sun 02:14:48 PM 40.3106 -79.1592 90° East 511 588 43,900 -2,000 Descending Cleveland Center
Sun 02:15:48 PM 40.3122 -78.9819 89° East 501 577 41,000 -3,100 Descending Cleveland Center
Sun 02:16:48 PM 40.3472 -78.8042 75° East 495 570 37,700 -3,000 Descending Cleveland Center
Sun 02:17:48 PM 40.4111 -78.6281 64° Northeast 501 577 35,000 -1,350 Descending Cleveland Center
Sun 02:18:48 PM 40.4600 -78.4464 70° East 513 590 35,000  Level Cleveland Center
Sun 02:19:54 PM 40.4431 -78.2606 97° East 530 610 35,000 -244 Level New York Center
Sun 02:20:51 PM 40.4217 -78.0672 98° East 545 627 34,500 -974 Descending New York Center
Sun 02:21:51 PM 40.3997 -77.8794 99° East 537 618 33,100 -732 Descending New York Center
Sun 02:22:54 PM 40.3756 -77.6889 99° East 530 610 33,000 -1,300 Descending New York Center
Sun 02:23:51 PM 40.3553 -77.5017 98° East 530 610 30,500 -2,797 Descending New York Center
Sun 02:24:52 PM 40.3308 -77.3031 99° East 530 610 27,500 -3,050 Descending New York Center
Sun 02:25:51 PM 40.3078 -77.1158 99° East 535 616 24,400 -3,050 Descending New York Center
Sun 02:26:52 PM 40.2711 -76.9436 106° East 511 588 21,400 -3,098 Descending New York Center
Sun 02:27:53 PM 40.2344 -76.7608 105° East 484 557 18,100 -3,025 Descending New York Center
Sun 02:28:53 PM 40.2111 -76.6011 101° East 455 524 15,300 -2,898 Descending New York Center
Sun 02:29:51 PM 40.1908 -76.4636 101° East 438 504 12,400 -2,168 Descending New York Center
Sun 02:30:52 PM 40.1656 -76.2958 101° East 427 491 11,000 -1,000 Descending New York Center
Sun 02:31:51 PM 40.1469 -76.1558 100° East 398 458 10,400 -800 Descending New York Center
Sun 02:32:52 PM 40.1292 -76.0403 101° East 351 404 9,400 -934 Descending New York Center
Sun 02:33:53 PM 40.1128 -75.9414 102° East 311 358 8,500 -1,289 Descending New York Center
Sun 02:34:53 PM 40.1053 -75.8242 95° East 300 345 6,800 -1,240 Descending New York Center
Sun 02:35:54 PM 40.1094 -75.7267 87° East 295 339 6,000 -958 Descending New York Center
Sun 02:36:52 PM 40.1206 -75.6081 83° East 290 334 4,900 -1,424 Descending New York Center
Sun 02:37:52 PM 40.1139 -75.5153 95° East 290 334 3,200 -950 Descending New York Center
Sun 02:38:52 PM 40.1058 -75.4061 95° East 284 327 3,000 -50 Descending New York Center
Sun 02:39:53 PM 40.1025 -75.3272 93° East 258 297 3,100  Climbing New York Center
Sun 02:40:51 PM 40.1161 -75.2467 78° East 228 262 3,000 -50 Descending New York Center
Sun 02:41:53 PM 40.1319 -75.1608 76° East 223 257 3,000 -393 Level New York Center
Sun 02:42:53 PM 40.1469 -75.0886 75° East 223 257 2,200 -550 Descending New York Center
Sun 02:43:53 PM 40.1581 -75.0158 79° East 196 226 1,900 -347 Descending New York Center
Sun 02:44:54 PM 40.1386 -74.9794 125° Southeast 144 166 1,500 -610 Descending New York Center
Sun 02:45:51 PM 40.1008 -74.9825 184° South 123 142 700 3,305 Descending New York Center
Sun 02:46:52 PM 40.0686 -74.9561 148° Southeast 123 142 8,000 7,180 Climbing New York Center
Sun 02:48:00 PM 40.0667 -75.0000 270° West  Level FlightAware Approximate

Login

Don't have an account? Register now (free) for customized features, flight alerts, and more!